This is the latest recevied weather packets stored in our database for station/object KE6RLG. If no packets are shown the sender has not sent any weather packets the latest 10 day(s).
| Time | Temp. | Humidity | Pressure | Rain* | Wind** | Luminosity | Snow |
|---|---|---|---|---|---|---|---|
| 1777629938 | 13.33° C | 89% | 1013.1 hPa | 0 mm | - | 0 W/m² | - |
| 1777629318 | 13.33° C | 88% | 1012.9 hPa | 0 mm | - | 0 W/m² | - |
| 1777628439 | 13.89° C | 88% | 1012.9 hPa | 0 mm | - | 0 W/m² | - |
| 1777627239 | 14.44° C | 88% | 1012.9 hPa | 0 mm | - | 0 W/m² | - |
| 1777626919 | 14.44° C | 88% | 1012.9 hPa | 0 mm | - | 0 W/m² | - |
| 1777626039 | 15° C | 87% | 1013 hPa | 0 mm | - | 0 W/m² | - |
| 1777625419 | 15.56° C | 86% | 1013.2 hPa | 0 mm | - | 0 W/m² | - |
| 1777620018 | 15.56° C | 85% | 1013.4 hPa | 0 mm | - | 0 W/m² | - |
| 1777619138 | 15.56° C | 85% | 1013.3 hPa | 0 mm | - | 0 W/m² | - |
| 1777618517 | 15.56° C | 84% | 1013.2 hPa | 0 mm | - | 0 W/m² | - |
| 1777617318 | 15.56° C | 83% | 1012.8 hPa | 0 mm | - | 0 W/m² | - |
| 1777616421 | 15.56° C | 83% | 1012.8 hPa | 0 mm | - | 0 W/m² | - |
| 1777614319 | 15.56° C | 85% | 1012.7 hPa | 0 mm | - | 0 W/m² | - |
| 1777613756 | 15.56° C | 86% | 1012.7 hPa | 0 mm | - | 0 W/m² | - |
| 1777613416 | 15.56° C | 86% | 1012.7 hPa | 0 mm | - | 0 W/m² | - |
| 1777612820 | 15.56° C | 86% | 1012.7 hPa | 0 mm | - | 0 W/m² | - |
| 1777611020 | 15.56° C | 86% | 1012.5 hPa | 0 mm | - | 0 W/m² | - |
| 1777610420 | 15.56° C | 86% | 1012.5 hPa | 0 mm | - | 0 W/m² | - |
| 1777608621 | 15° C | 87% | 1012.2 hPa | 0 mm | - | 0 W/m² | - |
| 1777607421 | 14.44° C | 87% | 1012.1 hPa | 0 mm | - | 0 W/m² | - |
| 1777601119 | 16.11° C | 80% | 1010.8 hPa | 0 mm | - | 34 W/m² | - |
| 1777600826 | 16.11° C | 78% | 1010.7 hPa | 0 mm | - | 40 W/m² | - |
| 1777600539 | 16.67° C | 77% | 1010.7 hPa | 0 mm | - | 45 W/m² | - |
| 1777599317 | 17.22° C | 73% | 1010.6 hPa | 0 mm | - | 104 W/m² | - |
| 1777597220 | 18.33° C | 67% | 1010.4 hPa | 0 mm | - | 212 W/m² | - |
* Rain latest hour (hover to see other rain measurements)
** Current wind speed in m/s (hover to see current wind gust speed)